Time;durP1;ratioP1;P1;durP2;ratioP2;P2;SDS_P1;SDS_P2;PMS_P1;PMS_P2;Temp;Humidity;BMP_temperature;BMP_pressure;BME280_temperature;BME280_humidity;BME280_pressure;Samples;Min_cycle;Max_cycle;Signal;HPM_P1;HPM_P2
2022/04/15 00:01:20;;;;;;;6.25;4.55;;;;;;;11.28;nan;98759.50;4972444;28;20043;-61
2022/04/15 00:03:46;;;;;;;9.02;5.72;;;;;;;11.28;nan;98764.66;4970794;28;20064;-61
2022/04/15 00:06:12;;;;;;;8.88;5.55;;;;;;;11.31;nan;98768.88;4972609;28;20117;-61
2022/04/15 00:08:38;;;;;;;7.53;4.95;;;;;;;11.25;nan;98748.44;4972224;28;20438;-60
2022/04/15 00:11:04;;;;;;;10.90;4.50;;;;;;;11.30;nan;98759.47;4971215;28;20034;-59
2022/04/15 00:13:31;;;;;;;8.20;4.97;;;;;;;11.35;nan;98767.94;4970377;28;20066;-60
2022/04/15 00:15:57;;;;;;;5.63;4.75;;;;;;;11.40;nan;98772.09;4972177;28;20026;-60
2022/04/15 00:18:23;;;;;;;5.30;4.75;;;;;;;11.38;nan;98781.53;4974737;28;20542;-60
2022/04/15 00:20:49;;;;;;;8.27;5.30;;;;;;;11.34;nan;98766.22;4970206;28;20114;-60
2022/04/15 00:23:14;;;;;;;10.45;5.55;;;;;;;11.29;nan;98761.19;4970764;28;20035;-60
2022/04/15 00:25:39;;;;;;;5.75;4.50;;;;;;;11.25;nan;98766.41;4971866;28;20045;-60
2022/04/15 00:28:05;;;;;;;6.45;4.95;;;;;;;11.30;nan;98764.59;4972745;28;20026;-60
2022/04/15 00:30:30;;;;;;;5.63;4.43;;;;;;;11.39;nan;98774.69;4970695;28;20806;-60
2022/04/15 00:32:56;;;;;;;5.80;4.90;;;;;;;11.28;nan;98776.63;4970227;28;20031;-60
2022/04/15 00:35:21;;;;;;;5.47;4.95;;;;;;;11.09;nan;98749.63;4972501;28;20490;-60
2022/04/15 00:37:47;;;;;;;8.77;4.95;;;;;;;11.29;nan;98768.88;4972600;28;20035;-60
2022/04/15 00:40:13;;;;;;;4.93;4.40;;;;;;;11.26;nan;98768.94;4970806;28;20041;-60
2022/04/15 00:42:39;;;;;;;5.10;4.38;;;;;;;11.12;nan;98754.72;4970247;28;20042;-60
2022/04/15 00:45:05;;;;;;;7.97;4.88;;;;;;;11.23;nan;98766.47;4974089;28;20379;-60
2022/04/15 00:47:36;;;;;;;6.88;4.78;;;;;;;11.27;nan;98769.81;4972964;28;20031;-60
2022/04/15 00:50:03;;;;;;;7.30;4.88;;;;;;;11.16;nan;98772.56;4969073;28;20038;-60
2022/04/15 00:52:34;;;;;;;4.60;4.20;;;;;;;11.01;nan;98757.47;4969031;28;20034;-59
2022/04/15 00:55:02;;;;;;;7.60;4.53;;;;;;;11.04;nan;98772.78;4971418;28;20038;-60
2022/04/15 00:57:30;;;;;;;5.68;4.57;;;;;;;11.05;nan;98771.06;4972259;28;20598;-60
2022/04/15 00:59:58;;;;;;;6.63;5.07;;;;;;;10.91;nan;98774.72;4970413;28;20043;-59
2022/04/15 01:02:26;;;;;;;7.32;4.63;;;;;;;11.04;nan;98756.56;4972185;28;20035;-60
2022/04/15 01:04:56;;;;;;;10.73;4.93;;;;;;;11.05;nan;98769.38;4973759;28;20656;-60
2022/04/15 01:07:26;;;;;;;8.23;5.50;;;;;;;10.98;nan;98753.25;4970201;28;20159;-60
2022/04/15 01:09:52;;;;;;;6.03;5.07;;;;;;;10.95;nan;98750.72;4968193;28;20114;-60
2022/04/15 01:12:20;;;;;;;7.55;5.65;;;;;;;10.88;nan;98758.56;4971158;28;20065;-59
2022/04/15 01:14:47;;;;;;;6.72;5.00;;;;;;;10.81;nan;98762.97;4973547;28;20031;-58
2022/04/15 01:17:13;;;;;;;7.72;5.38;;;;;;;10.74;nan;98758.81;4970753;28;20034;-60
2022/04/15 01:19:38;;;;;;;7.85;5.40;;;;;;;10.62;nan;98743.63;4967943;28;20049;-60
2022/04/15 01:22:08;;;;;;;8.05;5.88;;;;;;;10.68;nan;98755.50;4972874;28;20093;-59
2022/04/15 01:24:38;;;;;;;5.32;4.85;;;;;;;10.65;nan;98756.38;4972604;28;20640;-59
2022/04/15 01:27:07;;;;;;;7.90;5.13;;;;;;;10.64;nan;98767.53;4968985;28;20483;-59
2022/04/15 01:29:37;;;;;;;8.45;6.35;;;;;;;10.59;nan;98763.34;4969613;28;20031;-59
2022/04/15 01:32:04;;;;;;;10.88;6.45;;;;;;;10.47;nan;98754.16;4972572;28;20096;-60
2022/04/15 01:34:30;;;;;;;10.80;6.70;;;;;;;10.53;nan;98772.84;4972583;28;20365;-60
2022/04/15 01:36:56;;;;;;;7.13;5.78;;;;;;;10.37;nan;98756.03;4968921;28;20145;-60
2022/04/15 01:39:21;;;;;;;7.40;6.63;;;;;;;10.36;nan;98776.53;4970441;28;20058;-60
2022/04/15 01:41:47;;;;;;;10.07;6.53;;;;;;;10.28;nan;98763.84;4972929;28;20031;-60
2022/04/15 01:44:15;;;;;;;8.90;6.70;;;;;;;10.24;nan;98771.59;4970489;28;20030;-60
2022/04/15 01:46:42;;;;;;;7.57;6.38;;;;;;;10.25;nan;98783.56;4968529;28;20041;-61
2022/04/15 01:49:08;;;;;;;9.10;6.23;;;;;;;10.20;nan;98780.22;4970099;28;20039;-60
2022/04/15 01:51:34;;;;;;;8.20;6.53;;;;;;;10.22;nan;98783.63;4971257;28;20073;-60
2022/04/15 01:54:00;;;;;;;8.73;7.85;;;;;;;10.15;nan;98787.09;4972188;28;20023;-60
2022/04/15 01:56:25;;;;;;;7.13;6.30;;;;;;;10.00;nan;98772.81;4970013;28;20026;-60
2022/04/15 01:58:51;;;;;;;10.57;7.03;;;;;;;10.01;nan;98789.88;4972575;28;20034;-60
2022/04/15 02:01:16;;;;;;;9.37;6.40;;;;;;;9.99;nan;98795.00;4970440;28;20046;-60
2022/04/15 02:03:41;;;;;;;11.00;6.50;;;;;;;10.01;nan;98795.00;4970590;28;20038;-59
2022/04/15 02:06:07;;;;;;;9.98;6.88;;;;;;;10.04;nan;98793.22;4970294;28;20080;-59
2022/04/15 02:08:32;;;;;;;7.77;6.07;;;;;;;10.02;nan;98779.59;4972608;28;20031;-60
2022/04/15 02:10:58;;;;;;;9.23;6.47;;;;;;;10.07;nan;98798.28;4971774;28;20405;-60
2022/04/15 02:13:23;;;;;;;8.70;6.10;;;;;;;10.07;nan;98805.97;4969115;28;20034;-60
2022/04/15 02:15:48;;;;;;;9.20;7.03;;;;;;;10.23;nan;98806.63;4968398;28;20030;-59
2022/04/15 02:18:14;;;;;;;8.15;6.38;;;;;;;10.26;nan;98806.59;4973075;28;20643;-61
2022/04/15 02:20:40;;;;;;;8.68;7.13;;;;;;;10.29;nan;98800.56;4971452;28;20034;-59
2022/04/15 02:23:05;;;;;;;8.98;7.72;;;;;;;10.58;nan;98818.91;4968612;28;20404;-59
2022/04/15 02:25:31;;;;;;;12.50;8.23;;;;;;;10.99;nan;98816.50;4969586;28;20054;-59
2022/04/15 02:27:56;;;;;;;12.33;9.17;;;;;;;11.18;nan;98817.00;4973146;28;20350;-59
2022/04/15 02:30:21;;;;;;;13.27;9.20;;;;;;;11.40;nan;98818.31;4972756;28;20101;-59
2022/04/15 02:32:47;;;;;;;14.13;9.75;;;;;;;11.64;nan;98814.41;4968998;28;20311;-59
2022/04/15 02:35:12;;;;;;;14.63;9.82;;;;;;;12.02;nan;98823.06;4968661;28;20088;-60
2022/04/15 02:37:38;;;;;;;11.13;8.07;;;;;;;12.49;nan;98817.69;4973578;28;20492;-59
2022/04/15 02:40:06;;;;;;;14.77;8.75;;;;;;;12.86;nan;98816.81;4972486;28;20034;-59
2022/04/15 02:42:32;;;;;;;9.27;7.45;;;;;;;12.95;nan;98824.25;4966948;28;20121;-59
2022/04/15 02:44:58;;;;;;;10.55;7.90;;;;;;;12.75;nan;98823.06;4968850;28;20043;-59
2022/04/15 02:47:23;;;;;;;10.93;8.05;;;;;;;12.57;nan;98823.47;4972440;28;20043;-59
2022/04/15 02:49:49;;;;;;;13.18;8.77;;;;;;;12.60;nan;98831.13;4971458;28;20301;-60
2022/04/15 02:52:14;;;;;;;17.23;9.27;;;;;;;12.52;nan;98816.78;4967936;28;20072;-59
2022/04/15 02:54:40;;;;;;;12.40;9.48;;;;;;;12.61;nan;98824.25;4969327;28;20023;-59
2022/04/15 02:57:07;;;;;;;15.93;9.73;;;;;;;12.53;nan;98827.00;4971792;28;20065;-59
2022/04/15 02:59:33;;;;;;;13.75;10.52;;;;;;;12.83;nan;98831.41;4971171;28;20038;-60
2022/04/15 03:01:58;;;;;;;15.45;11.88;;;;;;;13.22;nan;98842.47;4968402;28;20046;-59
2022/04/15 03:04:24;;;;;;;17.13;11.25;;;;;;;13.54;nan;98840.75;4970966;28;20414;-59
2022/04/15 03:06:49;;;;;;;16.75;12.75;;;;;;;13.84;nan;98844.19;4971258;28;20038;-59
2022/04/15 03:09:15;;;;;;;16.95;12.50;;;;;;;14.13;nan;98839.06;4969575;28;20549;-59
2022/04/15 03:11:40;;;;;;;14.40;12.38;;;;;;;14.13;nan;98839.06;4967467;28;20433;-60
2022/04/15 03:14:06;;;;;;;18.42;13.65;;;;;;;14.28;nan;98842.88;4973838;28;20099;-59
2022/04/15 03:16:33;;;;;;;14.32;12.60;;;;;;;14.27;nan;98844.63;4976239;28;20092;-60
2022/04/15 03:18:58;;;;;;;17.98;14.45;;;;;;;14.31;nan;98859.09;4973940;28;20105;-59
2022/04/15 03:21:24;;;;;;;16.90;12.82;;;;;;;14.35;nan;98873.63;4971896;28;20030;-60
2022/04/15 03:23:49;;;;;;;18.08;13.10;;;;;;;14.28;nan;98874.69;4974818;28;20054;-59
2022/04/15 03:26:15;;;;;;;16.55;13.40;;;;;;;14.28;nan;98882.41;4975640;28;20027;-59
2022/04/15 03:28:40;;;;;;;21.15;15.45;;;;;;;14.17;nan;98866.44;4972841;28;20073;-59
2022/04/15 03:31:06;;;;;;;16.30;13.48;;;;;;;14.22;nan;98876.59;4969758;28;20042;-59
2022/04/15 03:33:32;;;;;;;14.85;13.23;;;;;;;14.09;nan;98868.38;4973463;28;20085;-63
2022/04/15 03:35:58;;;;;;;16.83;13.65;;;;;;;14.08;nan;98882.16;4973899;28;20041;-59
2022/04/15 03:38:23;;;;;;;15.27;12.23;;;;;;;14.00;nan;98886.72;4971539;28;20536;-60
2022/04/15 03:40:49;;;;;;;16.02;13.70;;;;;;;13.86;nan;98888.81;4971069;28;20316;-60
2022/04/15 03:43:14;;;;;;;16.15;13.00;;;;;;;13.92;nan;98886.09;4972950;28;20041;-60
2022/04/15 03:45:39;;;;;;;18.08;13.15;;;;;;;13.76;nan;98883.06;4975813;28;20039;-61
2022/04/15 03:48:05;;;;;;;19.45;15.00;;;;;;;13.93;nan;98898.06;4972222;28;20042;-61
2022/04/15 03:50:30;;;;;;;18.25;14.82;;;;;;;13.84;nan;98883.69;4969996;28;20037;-60
2022/04/15 03:52:56;;;;;;;16.48;13.75;;;;;;;13.80;nan;98889.81;4974647;28;20432;-61
2022/04/15 03:55:24;;;;;;;20.98;14.55;;;;;;;13.83;nan;98899.22;4974032;28;20575;-61
2022/04/15 03:57:50;;;;;;;18.55;14.57;;;;;;;13.82;nan;98907.84;4969788;28;20030;-64
2022/04/15 04:00:18;;;;;;;16.42;14.63;;;;;;;13.88;nan;98905.06;4971792;28;20077;-60
2022/04/15 04:02:48;;;;;;;15.63;14.02;;;;;;;13.73;nan;98898.63;4972439;28;20433;-61
2022/04/15 04:05:14;;;;;;;16.65;12.05;;;;;;;13.78;nan;98898.50;4974618;28;20039;-60
2022/04/15 04:07:40;;;;;;;17.27;14.70;;;;;;;13.74;nan;98915.78;4971660;28;20496;-60
2022/04/15 04:10:06;;;;;;;16.30;13.07;;;;;;;13.75;nan;98911.47;4973633;28;20432;-60
2022/04/15 04:12:33;;;;;;;19.65;12.70;;;;;;;13.74;nan;98926.09;4975095;28;20108;-60
2022/04/15 04:15:04;;;;;;;16.25;12.50;;;;;;;13.52;nan;98910.34;4973355;28;20037;-61
2022/04/15 04:17:29;;;;;;;17.95;12.43;;;;;;;13.68;nan;98926.25;4971472;28;20368;-60
2022/04/15 04:19:55;;;;;;;17.58;13.40;;;;;;;13.64;nan;98930.63;4973271;28;20033;-60
2022/04/15 04:22:20;;;;;;;15.55;12.20;;;;;;;13.58;nan;98920.47;4974343;28;20034;-61
2022/04/15 04:24:46;;;;;;;14.13;11.27;;;;;;;13.62;nan;98922.09;4971037;28;20479;-61
2022/04/15 04:27:11;;;;;;;13.48;12.07;;;;;;;13.60;nan;98939.31;4970973;28;20035;-61
2022/04/15 04:29:36;;;;;;;14.55;11.98;;;;;;;13.55;nan;98940.31;4972292;28;20035;-60
2022/04/15 04:32:02;;;;;;;16.83;11.60;;;;;;;13.63;nan;98946.97;4973483;28;20046;-59
2022/04/15 04:34:28;;;;;;;14.02;11.25;;;;;;;13.69;nan;98948.56;4972407;28;20038;-60
2022/04/15 04:36:53;;;;;;;16.50;11.02;;;;;;;13.60;nan;98939.31;4969643;28;20065;-60
2022/04/15 04:39:18;;;;;;;12.25;9.93;;;;;;;13.68;nan;98959.72;4981853;28;20034;-60
2022/04/15 04:41:44;;;;;;;13.77;10.45;;;;;;;13.69;nan;98953.69;4973884;28;20085;-61
2022/04/15 04:44:09;;;;;;;14.35;10.65;;;;;;;13.69;nan;98958.84;4972198;28;20038;-61
2022/04/15 04:46:35;;;;;;;13.57;9.82;;;;;;;13.62;nan;98960.72;4970284;28;20569;-60
2022/04/15 04:49:02;;;;;;;11.48;9.75;;;;;;;13.58;nan;98953.97;4974011;28;20035;-59
2022/04/15 04:51:28;;;;;;;11.38;8.98;;;;;;;13.76;nan;98981.00;4972647;28;20105;-60
2022/04/15 04:53:53;;;;;;;10.60;9.45;;;;;;;13.65;nan;98972.72;4972103;28;20133;-60
2022/04/15 04:56:18;;;;;;;15.05;9.40;;;;;;;13.69;nan;98984.63;4971500;28;20030;-61
2022/04/15 04:58:44;;;;;;;13.27;9.05;;;;;;;13.66;nan;98989.88;4974123;28;20137;-61
2022/04/15 05:01:09;;;;;;;9.73;8.32;;;;;;;13.73;nan;99007.69;4972996;28;20045;-60
2022/04/15 05:03:35;;;;;;;11.70;10.50;;;;;;;13.75;nan;99017.94;4970050;28;20126;-60
2022/04/15 05:06:00;;;;;;;11.40;9.70;;;;;;;13.68;nan;99008.69;4970943;28;20034;-60
2022/04/15 05:08:25;;;;;;;14.02;9.77;;;;;;;13.72;nan;99023.19;4973975;28;20034;-60
2022/04/15 05:10:51;;;;;;;10.85;9.65;;;;;;;13.73;nan;99025.72;4972041;28;20429;-60
2022/04/15 05:13:16;;;;;;;14.00;9.90;;;;;;;13.78;nan;99023.03;4969681;28;20583;-60
2022/04/15 05:15:42;;;;;;;9.98;8.98;;;;;;;13.85;nan;99023.72;4970810;28;20489;-60
2022/04/15 05:18:08;;;;;;;9.48;8.45;;;;;;;13.80;nan;99015.25;4973258;28;20054;-59
2022/04/15 05:20:34;;;;;;;11.77;8.35;;;;;;;14.01;nan;99023.28;4972746;28;20027;-61
2022/04/15 05:23:00;;;;;;;11.63;8.45;;;;;;;13.96;nan;99008.84;4969656;28;20465;-60
2022/04/15 05:25:25;;;;;;;9.45;7.03;;;;;;;14.07;nan;99023.13;4973111;28;20058;-60
2022/04/15 05:27:52;;;;;;;8.70;7.10;;;;;;;14.22;nan;99023.56;4976602;28;20453;-60
2022/04/15 05:30:18;;;;;;;8.77;7.72;;;;;;;14.25;nan;99020.94;4973428;28;20057;-59
2022/04/15 05:32:43;;;;;;;7.93;6.28;;;;;;;14.14;nan;99013.47;4970746;28;20389;-60
2022/04/15 05:35:09;;;;;;;9.82;6.47;;;;;;;14.24;nan;99019.25;4971665;28;20038;-61
2022/04/15 05:37:35;;;;;;;6.70;5.70;;;;;;;14.17;nan;99014.22;4974355;28;20068;-61
2022/04/15 05:40:00;;;;;;;9.60;6.80;;;;;;;14.12;nan;99004.97;4972461;28;20484;-61
2022/04/15 05:42:29;;;;;;;7.80;6.35;;;;;;;14.26;nan;99013.13;4969694;28;20030;-60
2022/04/15 05:44:54;;;;;;;8.18;6.15;;;;;;;14.22;nan;99016.69;4971552;28;20115;-60
2022/04/15 05:47:20;;;;;;;8.98;6.35;;;;;;;14.22;nan;99013.25;4974136;28;20116;-60
2022/04/15 05:49:45;;;;;;;6.72;6.03;;;;;;;14.13;nan;99006.66;4969478;28;20050;-60
2022/04/15 05:52:11;;;;;;;9.57;6.45;;;;;;;14.26;nan;99023.44;4970077;28;20031;-60
2022/04/15 05:54:37;;;;;;;7.20;6.10;;;;;;;14.39;nan;99035.16;4973273;28;20383;-60
2022/04/15 05:57:02;;;;;;;8.65;5.80;;;;;;;14.29;nan;99030.28;4973390;28;20057;-61
2022/04/15 05:59:28;;;;;;;7.45;6.18;;;;;;;14.32;nan;99032.75;4970143;28;20039;-60
2022/04/15 06:01:53;;;;;;;8.63;6.00;;;;;;;14.42;nan;99029.94;4969394;28;20092;-59
2022/04/15 06:04:19;;;;;;;8.32;5.82;;;;;;;14.38;nan;99033.50;4972555;28;20548;-60
2022/04/15 06:06:44;;;;;;;7.80;5.57;;;;;;;14.52;nan;99041.66;4970967;28;20469;-60
2022/04/15 06:09:09;;;;;;;7.55;5.95;;;;;;;14.62;nan;99047.44;4969152;28;20070;-60
2022/04/15 06:11:36;;;;;;;5.80;5.20;;;;;;;14.61;nan;99031.09;4970385;28;20041;-60
2022/04/15 06:14:04;;;;;;;5.38;4.78;;;;;;;14.67;nan;99024.91;4971230;28;20054;-61
2022/04/15 06:16:33;;;;;;;7.65;4.47;;;;;;;14.76;nan;99034.13;4971523;28;20038;-60
2022/04/15 06:19:01;;;;;;;7.25;4.75;;;;;;;14.75;nan;99035.84;4968308;28;20038;-60
2022/04/15 06:21:26;;;;;;;7.28;5.55;;;;;;;14.84;nan;99047.66;4969432;28;20436;-62
2022/04/15 06:23:53;;;;;;;7.57;5.03;;;;;;;14.95;nan;99068.81;4970816;28;20866;-60
2022/04/15 06:26:19;;;;;;;7.07;5.15;;;;;;;14.96;nan;99061.03;4970010;28;20378;-60
2022/04/15 06:28:44;;;;;;;7.57;5.57;;;;;;;14.82;nan;99052.00;4968058;28;20034;-59
2022/04/15 06:31:10;;;;;;;6.57;5.25;;;;;;;14.92;nan;99071.50;4970306;28;20495;-60
2022/04/15 06:33:37;;;;;;;6.25;5.15;;;;;;;14.95;nan;99055.91;4972538;28;20038;-60
2022/04/15 06:36:03;;;;;;;6.15;5.32;;;;;;;15.01;nan;99077.25;4970406;28;20154;-60
2022/04/15 06:38:28;;;;;;;5.85;4.85;;;;;;;14.85;nan;99062.25;4969222;28;20045;-61
2022/04/15 06:40:54;;;;;;;5.50;5.00;;;;;;;14.66;nan;99067.09;4971054;28;20030;-61
2022/04/15 06:43:19;;;;;;;6.82;4.78;;;;;;;14.68;nan;99073.06;4972410;28;20042;-59
2022/04/15 06:45:45;;;;;;;8.63;6.30;;;;;;;14.70;nan;99097.09;4970699;28;20069;-65
2022/04/15 06:48:10;;;;;;;6.10;4.65;;;;;;;14.63;nan;99087.84;4971495;28;20043;-65
2022/04/15 06:50:36;;;;;;;4.65;4.25;;;;;;;14.63;nan;99093.84;4975462;28;20035;-62
2022/04/15 06:53:02;;;;;;;6.97;4.38;;;;;;;14.63;nan;99098.16;4974551;28;20576;-61
2022/04/15 06:55:27;;;;;;;7.55;4.28;;;;;;;14.53;nan;99102.72;4972163;28;20137;-61
2022/04/15 06:57:52;;;;;;;6.80;4.30;;;;;;;14.40;nan;99088.44;4971733;28;21030;-59
2022/04/15 07:00:18;;;;;;;7.78;4.40;;;;;;;14.33;nan;99086.06;4975683;28;20034;-60
2022/04/15 07:02:44;;;;;;;7.13;4.07;;;;;;;14.23;nan;99095.75;4975097;28;20035;-60
2022/04/15 07:05:10;;;;;;;6.28;4.53;;;;;;;14.20;nan;99111.31;4973962;28;20678;-60
2022/04/15 07:07:44;;;;;;;5.38;4.70;;;;;;;13.95;nan;99103.38;4972446;28;20422;-60
2022/04/15 07:10:11;;;;;;;6.90;5.63;;;;;;;13.76;nan;99116.72;4976409;28;20065;-60
2022/04/15 07:12:37;;;;;;;10.10;6.03;;;;;;;13.62;nan;99105.00;4975849;28;20473;-60
2022/04/15 07:15:03;;;;;;;9.60;6.97;;;;;;;13.36;nan;99091.91;4970610;28;20041;-60
2022/04/15 07:17:29;;;;;;;8.88;7.38;;;;;;;13.18;nan;99088.03;4971629;28;20397;-60
2022/04/15 07:19:54;;;;;;;12.07;8.98;;;;;;;12.96;nan;99103.91;4975425;28;20035;-58
2022/04/15 07:22:20;;;;;;;10.27;8.50;;;;;;;12.62;nan;99088.31;4973121;28;20030;-61
2022/04/15 07:24:47;;;;;;;14.52;10.80;;;;;;;12.54;nan;99103.06;4970709;28;20082;-59
2022/04/15 07:27:12;;;;;;;16.42;11.25;;;;;;;12.57;nan;99114.13;4972847;28;20034;-58
2022/04/15 07:29:38;;;;;;;13.43;10.45;;;;;;;12.49;nan;99112.56;4974813;28;20034;-59
2022/04/15 07:32:04;;;;;;;17.80;11.27;;;;;;;12.47;nan;99112.63;4972631;28;20035;-58
2022/04/15 07:34:30;;;;;;;14.73;11.55;;;;;;;12.37;nan;99103.38;4971613;28;20027;-58
2022/04/15 07:36:55;;;;;;;17.02;14.32;;;;;;;12.51;nan;99111.69;4972563;28;20108;-58
2022/04/15 07:39:22;;;;;;;21.55;17.98;;;;;;;12.43;nan;99108.41;4974716;28;20061;-58
2022/04/15 07:41:48;;;;;;;18.13;14.52;;;;;;;12.43;nan;99118.69;4973823;28;20062;-58
2022/04/15 07:44:14;;;;;;;16.92;12.85;;;;;;;12.33;nan;99118.00;4968881;28;20033;-58
2022/04/15 07:46:42;;;;;;;19.23;12.50;;;;;;;12.36;nan;99110.25;4971182;28;20043;-58
2022/04/15 07:49:08;;;;;;;20.65;14.57;;;;;;;12.34;nan;99117.16;4973048;28;20026;-59
2022/04/15 07:51:34;;;;;;;20.92;14.40;;;;;;;12.35;nan;99107.69;4969411;28;20594;-58
2022/04/15 07:54:00;;;;;;;20.65;15.55;;;;;;;12.27;nan;99092.41;4970800;28;20070;-59
2022/04/15 07:56:26;;;;;;;17.65;14.32;;;;;;;12.22;nan;99090.81;4973070;28;20604;-58
2022/04/15 07:58:51;;;;;;;19.88;13.68;;;;;;;12.22;nan;99106.25;4972513;28;20034;-58
2022/04/15 08:01:17;;;;;;;16.42;13.57;;;;;;;12.30;nan;99112.09;4972717;28;20034;-58
2022/04/15 08:03:43;;;;;;;19.17;15.73;;;;;;;12.32;nan;99110.31;4971267;28;20038;-58
2022/04/15 08:06:09;;;;;;;22.42;14.13;;;;;;;12.31;nan;99113.75;4974055;28;20627;-58
2022/04/15 08:08:34;;;;;;;20.52;15.18;;;;;;;12.30;nan;99101.81;4975019;28;20039;-58
2022/04/15 08:11:01;;;;;;;19.85;14.23;;;;;;;12.46;nan;99099.78;4971563;28;20332;-58
2022/04/15 08:13:27;;;;;;;16.70;14.23;;;;;;;12.52;nan;99102.25;4971187;28;20039;-58
2022/04/15 08:15:53;;;;;;;17.92;14.98;;;;;;;12.74;nan;99117.22;4973707;28;20397;-58
2022/04/15 08:18:19;;;;;;;15.82;14.15;;;;;;;12.83;nan;99117.03;4973939;28;20042;-58
2022/04/15 08:20:45;;;;;;;14.48;12.65;;;;;;;12.93;nan;99120.28;4969057;28;20038;-58
2022/04/15 08:23:11;;;;;;;15.75;11.85;;;;;;;13.02;nan;99122.66;4972114;28;20481;-58
2022/04/15 08:25:39;;;;;;;14.98;10.77;;;;;;;13.12;nan;99121.59;4973617;28;20062;-56
2022/04/15 08:28:05;;;;;;;13.32;10.90;;;;;;;12.99;nan;99127.00;4973485;28;20845;-58
2022/04/15 08:30:34;;;;;;;11.55;10.10;;;;;;;12.97;nan;99108.19;4969815;28;20046;-58
2022/04/15 08:33:00;;;;;;;13.38;11.20;;;;;;;12.99;nan;99122.72;4972804;28;20038;-58
2022/04/15 08:35:27;;;;;;;14.20;12.00;;;;;;;13.01;nan;99128.69;4972362;28;20673;-58
2022/04/15 08:37:52;;;;;;;15.52;11.60;;;;;;;13.06;nan;99126.88;4972499;28;20030;-58
2022/04/15 08:40:18;;;;;;;16.00;12.18;;;;;;;13.07;nan;99131.13;4970067;28;20496;-59
2022/04/15 08:42:44;;;;;;;14.63;13.13;;;;;;;13.13;nan;99136.19;4972758;28;20516;-58
2022/04/15 08:45:12;;;;;;;18.67;15.93;;;;;;;13.10;nan;99136.25;4972676;28;20367;-59
2022/04/15 08:47:39;;;;;;;16.25;14.45;;;;;;;13.15;nan;99138.72;4973408;28;20459;-58
2022/04/15 08:50:06;;;;;;;19.38;16.20;;;;;;;13.10;nan;99140.53;4970463;28;20076;-58
2022/04/15 08:52:32;;;;;;;20.85;15.50;;;;;;;13.03;nan;99136.34;4971684;28;20088;-60
2022/04/15 08:55:00;;;;;;;18.35;16.33;;;;;;;13.01;nan;99122.69;4973037;28;20635;-59
2022/04/15 08:57:26;;;;;;;17.38;14.98;;;;;;;13.17;nan;99134.38;4970844;28;20042;-59
2022/04/15 08:59:53;;;;;;;16.48;13.85;;;;;;;13.20;nan;99118.84;4971272;28;20041;-59
2022/04/15 09:02:37;;;;;;;14.23;12.27;;;;;;;13.36;nan;99111.66;4972279;28;20035;-60
2022/04/15 09:05:04;;;;;;;13.38;11.77;;;;;;;13.22;nan;99109.38;4972919;28;20049;-59
2022/04/15 09:07:31;;;;;;;14.55;11.45;;;;;;;13.24;nan;99121.34;4968580;28;20035;-59
2022/04/15 09:09:58;;;;;;;16.75;12.75;;;;;;;13.16;nan;99100.06;4984175;28;20039;-60
2022/04/15 09:12:35;;;;;;;15.38;12.43;;;;;;;13.21;nan;99102.53;4973394;28;20034;-59
2022/04/15 09:15:06;;;;;;;17.23;12.05;;;;;;;13.36;nan;99106.50;4973080;28;20049;-60
2022/04/15 09:17:34;;;;;;;14.57;11.30;;;;;;;13.27;nan;99111.00;4968263;28;20587;-59
2022/04/15 09:20:01;;;;;;;14.95;13.13;;;;;;;13.30;nan;99107.50;4970630;28;20027;-59
2022/04/15 09:22:27;;;;;;;16.00;11.90;;;;;;;13.43;nan;99090.88;4972702;28;20031;-60
2022/04/15 09:24:52;;;;;;;11.93;10.60;;;;;;;13.55;nan;99108.63;4970534;28;20054;-59
2022/04/15 09:27:19;;;;;;;13.45;11.93;;;;;;;13.58;nan;99118.84;4968482;28;20038;-60
2022/04/15 09:29:46;;;;;;;15.27;11.75;;;;;;;13.54;nan;99113.78;4969211;28;20085;-60
2022/04/15 09:32:16;;;;;;;15.07;12.10;;;;;;;13.54;nan;99099.19;4953454;28;20081;-59
2022/04/15 09:34:54;;;;;;;18.17;13.07;;;;;;;13.60;nan;99111.09;4970283;28;20031;-60
2022/04/15 09:37:21;;;;;;;18.20;15.32;;;;;;;13.72;nan;99114.22;4968401;28;20181;-60
2022/04/15 09:40:26;;;;;;;18.85;14.65;;;;;;;14.16;nan;99109.72;4972709;28;20041;-59
2022/04/15 09:42:54;;;;;;;17.25;13.45;;;;;;;14.73;nan;99106.47;4971437;28;20456;-60
2022/04/15 09:45:21;;;;;;;16.65;14.68;;;;;;;14.63;nan;99087.84;4968437;28;20045;-60
2022/04/15 09:47:56;;;;;;;15.95;13.40;;;;;;;14.74;nan;99101.28;4970570;28;20118;-59
2022/04/15 09:50:25;;;;;;;14.45;13.02;;;;;;;14.85;nan;99100.97;4972919;28;20034;-61
2022/04/15 09:52:51;;;;;;;12.15;10.95;;;;;;;14.78;nan;99096.84;4970958;28;20043;-59
2022/04/15 09:55:19;;;;;;;13.65;12.25;;;;;;;14.88;nan;99088.81;4969669;28;20524;-59
2022/04/15 09:57:46;;;;;;;13.95;12.50;;;;;;;14.79;nan;99081.34;4971668;28;20023;-59
2022/04/15 10:00:13;;;;;;;13.85;12.20;;;;;;;14.99;nan;99096.25;4971657;28;20037;-60
2022/04/15 10:02:42;;;;;;;10.73;8.65;;;;;;;15.13;nan;99099.28;4969591;28;20118;-59
2022/04/15 10:05:08;;;;;;;11.50;10.27;;;;;;;15.17;nan;99098.28;4970244;28;20031;-56
2022/04/15 10:07:34;;;;;;;12.73;11.00;;;;;;;15.25;nan;99101.47;4970778;28;20026;-60
2022/04/15 10:10:02;;;;;;;10.63;9.52;;;;;;;15.14;nan;99084.63;4971906;28;20082;-58
2022/04/15 10:12:29;;;;;;;11.07;9.90;;;;;;;15.34;nan;99098.63;4968530;28;20033;-59
2022/04/15 10:14:55;;;;;;;9.93;8.82;;;;;;;15.38;nan;99087.31;4969421;28;20035;-59
2022/04/15 10:17:23;;;;;;;8.43;7.40;;;;;;;15.38;nan;99079.53;4970984;28;20513;-59
2022/04/15 10:19:49;;;;;;;9.63;7.93;;;;;;;15.46;nan;99090.50;4971499;28;20037;-59
2022/04/15 10:22:16;;;;;;;10.48;6.90;;;;;;;15.79;nan;99082.56;4968088;28;20065;-58
2022/04/15 10:24:41;;;;;;;6.68;6.05;;;;;;;16.00;nan;99058.59;4972937;28;20061;-59
2022/04/15 10:27:07;;;;;;;8.50;6.85;;;;;;;16.31;nan;99077.34;4976388;28;20416;-60
2022/04/15 10:29:32;;;;;;;7.03;6.32;;;;;;;16.40;nan;99084.78;4975530;28;20042;-59
2022/04/15 10:32:11;;;;;;;7.28;6.68;;;;;;;16.43;nan;99089.84;4971195;28;20031;-59
2022/04/15 10:34:47;;;;;;;6.22;5.53;;;;;;;16.38;nan;99080.53;4974004;28;20065;-59
2022/04/15 10:37:13;;;;;;;6.22;5.57;;;;;;;16.32;nan;99063.50;4973548;28;20580;-59
2022/04/15 10:39:50;;;;;;;8.15;7.05;;;;;;;16.62;nan;99084.06;4974063;28;20058;-60
2022/04/15 10:42:19;;;;;;;7.90;6.60;;;;;;;16.66;nan;99076.13;4975749;28;20193;-61
2022/04/15 10:44:46;;;;;;;6.47;5.88;;;;;;;16.83;nan;99067.72;4975130;28;20026;-60
2022/04/15 10:47:12;;;;;;;9.80;6.00;;;;;;;16.86;nan;99072.78;4971356;28;20479;-60
2022/04/15 10:49:54;;;;;;;7.70;5.78;;;;;;;16.95;nan;99069.00;4973467;28;20034;-60
2022/04/15 10:52:24;;;;;;;8.68;6.45;;;;;;;16.85;nan;99065.91;4973966;28;20038;-60
2022/04/15 10:54:54;;;;;;;7.13;6.53;;;;;;;16.84;nan;99061.66;4975676;28;20457;-62
2022/04/15 10:57:21;;;;;;;7.70;7.00;;;;;;;17.48;nan;99079.91;4973354;28;20027;-63
2022/04/15 11:02:45;;;;;;;8.23;6.50;;;;;;;17.59;nan;99075.16;4971854;28;20073;-63
2022/04/15 11:05:31;;;;;;;5.90;5.22;;;;;;;17.87;nan;99065.34;4974756;28;20030;-58
2022/04/15 11:08:05;;;;;;;6.32;5.20;;;;;;;17.70;nan;99047.03;4972408;28;20484;-58
2022/04/15 11:10:40;;;;;;;5.75;5.18;;;;;;;17.76;nan;99060.59;4970573;28;20062;-59
2022/04/15 11:13:07;;;;;;;;;;;;;;;17.68;nan;99057.50;4974564;28;20050;-58
2022/04/15 11:16:01;;;;;;;6.22;5.63;;;;;;;17.66;nan;99058.44;4974815;28;19928;-59
2022/04/15 11:18:53;;;;;;;6.53;5.93;;;;;;;17.91;nan;99048.72;4971309;28;20076;-60
2022/04/15 11:21:21;;;;;;;5.85;5.35;;;;;;;18.05;nan;99049.00;4971245;28;20030;-60
2022/04/15 11:23:57;;;;;;;5.55;5.07;;;;;;;18.18;nan;99057.13;4974643;28;20055;-60
2022/04/15 11:26:25;;;;;;;5.50;4.68;;;;;;;17.94;nan;99045.19;4973570;28;20612;-60
2022/04/15 11:28:53;;;;;;;5.88;4.88;;;;;;;18.13;nan;99054.72;4970622;28;20037;-59
2022/04/15 11:31:19;;;;;;;6.28;5.00;;;;;;;18.22;nan;99059.50;4972154;28;20049;-60
2022/04/15 11:33:45;;;;;;;7.88;5.75;;;;;;;17.76;nan;99045.03;4972951;28;20027;-59
2022/04/15 11:36:10;;;;;;;5.78;5.07;;;;;;;17.80;nan;99056.97;4973562;28;20398;-59
2022/04/15 11:38:36;;;;;;;6.05;5.45;;;;;;;17.48;nan;99066.94;4970481;28;20065;-59
2022/04/15 11:41:02;;;;;;;6.57;5.97;;;;;;;16.77;nan;99061.03;4973041;28;20054;-59
2022/04/15 11:43:28;;;;;;;8.93;6.55;;;;;;;16.74;nan;99070.66;4974207;28;20305;-59
2022/04/15 11:45:53;;;;;;;11.73;7.82;;;;;;;16.51;nan;99066.28;4972839;28;20156;-59